This is the latest recevied weather packets stored in our database for station/object OE5WWO. If no packets are shown the sender has not sent any weather packets the latest 10 day(s).
| Time | Temp. | Humidity | Pressure | Rain* | Wind** | Luminosity | Snow |
|---|---|---|---|---|---|---|---|
| 1777390253 | 20.56° C | 35% | 1016.7 hPa | 0 mm | - | - | - |
| 1777389043 | 20.56° C | 34% | 1016.7 hPa | 0 mm | - | - | - |
| 1777388742 | 21.11° C | 35% | 1016.7 hPa | 0 mm | - | - | - |
| 1777387240 | 21.67° C | 34% | 1016.8 hPa | 0 mm | - | - | - |
| 1777384237 | 22.22° C | 29% | 1017.1 hPa | 0 mm | - | - | - |
| 1777383639 | 22.22° C | 29% | 1017.2 hPa | 0 mm | - | - | - |
| 1777382153 | 21.67° C | 31% | 1017.5 hPa | 0 mm | - | - | - |
| 1777381840 | 21.67° C | 32% | 1017.5 hPa | 0 mm | - | - | - |
| 1777379456 | 20° C | 37% | 1017.9 hPa | 0 mm | - | - | - |
| 1777378836 | 20.56° C | 37% | 1017.9 hPa | 0 mm | - | - | - |
| 1777378238 | 20° C | 38% | 1018.1 hPa | 0 mm | - | - | - |
| 1777375860 | 19.44° C | 43% | 1018.4 hPa | 0 mm | - | - | - |
| 1777373441 | 17.78° C | 44% | 1018.7 hPa | 0 mm | - | - | - |
| 1777372263 | 17.22° C | 47% | 1018.8 hPa | 0 mm | - | - | - |
| 1777371639 | 17.22° C | 47% | 1018.9 hPa | 0 mm | - | - | - |
| 1777371039 | 16.67° C | 47% | 1018.9 hPa | 0 mm | - | - | - |
| 1777370736 | 16.11° C | 50% | 1019 hPa | 0 mm | - | - | - |
| 1777364440 | 13.89° C | 56% | 1019 hPa | 0 mm | - | - | - |
| 1777364148 | 13.33° C | 56% | 1019.1 hPa | 0 mm | - | - | - |
| 1777362639 | 13.33° C | 56% | 1019.1 hPa | 0 mm | - | - | - |
| 1777361736 | 12.22° C | 57% | 1019 hPa | 0 mm | - | - | - |
| 1777359339 | 11.67° C | 57% | 1019.1 hPa | 0 mm | - | - | - |
| 1777358759 | 11.67° C | 56% | 1019.3 hPa | 0 mm | - | - | - |
| 1777356955 | 10.56° C | 56% | 1019.3 hPa | 0 mm | - | - | - |
| 1777354839 | 10° C | 55% | 1019.3 hPa | 0 mm | - | - | - |
* Rain latest hour (hover to see other rain measurements)
** Current wind speed in m/s (hover to see current wind gust speed)